This demonstration page uses our WeatherBlox Daily Observations layout. Learn more.

38.88101, -77.10428

Hourly Observations for January 31, 2016

Temp ( °F °C ) Dew Point ( °F °C ) Humidity (%) Winds ( mph kmh ) Pressure ( in mb ) Visibility ( mi km ) Precip ( " mm )
12:52 am 00:52 Mostly Clear 41 5 25 -4 53 53 SSW 8 13 30 1016 10 16.09344 0 0
1:52 am 01:52 Partly Cloudy 39 4 25 -4 56 56 SSW 9 15 29.97 1015 10 16.09344 0 0
2:52 am 02:52 Mostly Cloudy 41 5 25 -4 53 53 SSW 6 9 29.97 1015 10 16.09344 0 0
3:52 am 03:52 Mostly Cloudy 37 3 27 -3 65 65 SSW 8 13 29.97 1015 10 16.09344 0 0
4:52 am 04:52 Mostly Cloudy 37 3 27 -3 65 65 SSW 5 7 29.97 1015 10 16.09344 0 0
5:52 am 05:52 Cloudy 36 2 28 -2 75 75 SSW 7 11 30 1016 10 16.09344 0 0
6:52 am 06:52 Mostly Cloudy 37 3 27 -3 65 65 SSW 6 9 30 1016 10 16.09344 0 0
7:52 am 07:52 Mostly Cloudy 37 3 28 -2 70 70 SSW 6 9 30 1016 10 16.09344 0 0
8:52 am 08:52 Mostly Cloudy 39 4 28 -2 65 65 S 7 11 30 1016 10 16.09344 0 0
9:52 am 09:52 Mostly Cloudy 43 6 30 -1 61 61 S 7 11 30 1016 10 16.09344 0 0
10:52 am 10:52 Mostly Cloudy 45 7 30 -1 57 57 S 10 17 30 1016 10 16.09344 0 0
11:52 am 11:52 Partly Cloudy 48 9 30 -1 50 50 SSE 9 15 29.97 1015 10 16.09344 0 0
12:52 pm 12:52 Partly Cloudy 52 11 30 -1 44 44 S 10 17 29.94 1014 10 16.09344 0 0
1:52 pm 13:52 Partly Cloudy 55 13 32 0 41 41 S 8 13 29.88 1012 10 16.09344 0 0
2:52 pm 14:52 Partly Cloudy 52 11 34 1 50 50 S 14 22 29.85 1011 10 16.09344 0 0
3:52 pm 15:52 Mostly Cloudy 50 10 34 1 54 54 S 14 22 29.85 1011 10 16.09344 0 0
4:52 pm 16:52 Mostly Cloudy 52 11 36 2 54 54 S 13 20 29.85 1011 10 16.09344 0 0
5:52 pm 17:52 Mostly Cloudy 50 10 36 2 58 58 S 10 17 29.85 1011 10 16.09344 0 0
6:52 pm 18:52 Mostly Cloudy 50 10 37 3 62 62 S 14 22 29.83 1010 10 16.09344 0 0
7:52 pm 19:52 Mostly Cloudy 48 9 37 3 66 66 S 12 19 29.83 1010 10 16.09344 0 0
8:52 pm 20:52 Mostly Cloudy 46 8 36 2 66 66 S 12 19 29.83 1010 10 16.09344 0 0
9:52 pm 21:52 Mostly Cloudy 52 11 37 3 58 58 SSW 14 22 29.83 1010 10 16.09344 0 0
10:52 pm 22:52 Mostly Cloudy 52 11 37 3 58 58 S 14 22 29.83 1010 10 16.09344 0 0
11:52 pm 23:52 Mostly Cloudy 52 11 37 3 58 58 SSW 5 7 29.85 1011 10 16.09344 0 0

Powered by AerisWeather